sensor_id;sensor_type;location;lat;lon;timestamp;temperature;humidity
6496;DHT22;3281;47.658;9.166;2024-01-07T00:01:27;5.70;1.00
6496;DHT22;3281;47.658;9.166;2024-01-07T00:03:54;5.70;1.00
6496;DHT22;3281;47.658;9.166;2024-01-07T00:06:22;5.60;1.00
6496;DHT22;3281;47.658;9.166;2024-01-07T00:08:49;5.60;1.00
6496;DHT22;3281;47.658;9.166;2024-01-07T00:11:15;5.60;1.00
6496;DHT22;3281;47.658;9.166;2024-01-07T00:13:42;5.60;1.00
6496;DHT22;3281;47.658;9.166;2024-01-07T00:16:09;5.60;1.00
6496;DHT22;3281;47.658;9.166;2024-01-07T00:18:35;5.60;1.00
6496;DHT22;3281;47.658;9.166;2024-01-07T00:21:02;5.60;1.00
6496;DHT22;3281;47.658;9.166;2024-01-07T00:23:30;5.60;1.00
6496;DHT22;3281;47.658;9.166;2024-01-07T00:25:57;5.60;1.00
6496;DHT22;3281;47.658;9.166;2024-01-07T00:28:24;5.60;1.00
6496;DHT22;3281;47.658;9.166;2024-01-07T00:30:50;5.60;1.00
6496;DHT22;3281;47.658;9.166;2024-01-07T00:33:17;5.50;1.00
6496;DHT22;3281;47.658;9.166;2024-01-07T00:35:44;5.50;1.00
6496;DHT22;3281;47.658;9.166;2024-01-07T00:38:10;5.50;1.00
6496;DHT22;3281;47.658;9.166;2024-01-07T00:40:38;5.50;1.00
6496;DHT22;3281;47.658;9.166;2024-01-07T00:43:05;5.50;1.00
6496;DHT22;3281;47.658;9.166;2024-01-07T00:45:32;5.60;1.00
6496;DHT22;3281;47.658;9.166;2024-01-07T00:47:58;5.60;1.00
6496;DHT22;3281;47.658;9.166;2024-01-07T00:50:25;5.50;1.00
6496;DHT22;3281;47.658;9.166;2024-01-07T00:52:52;5.50;1.00
6496;DHT22;3281;47.658;9.166;2024-01-07T00:55:18;5.50;1.00
6496;DHT22;3281;47.658;9.166;2024-01-07T00:57:49;5.50;1.00
6496;DHT22;3281;47.658;9.166;2024-01-07T01:00:16;5.50;1.00
6496;DHT22;3281;47.658;9.166;2024-01-07T01:02:43;5.50;1.00
6496;DHT22;3281;47.658;9.166;2024-01-07T01:05:10;5.50;1.00
6496;DHT22;3281;47.658;9.166;2024-01-07T01:07:36;5.60;1.00
6496;DHT22;3281;47.658;9.166;2024-01-07T01:10:04;5.50;1.00
6496;DHT22;3281;47.658;9.166;2024-01-07T01:12:31;5.50;1.00
6496;DHT22;3281;47.658;9.166;2024-01-07T01:14:59;5.50;1.00
6496;DHT22;3281;47.658;9.166;2024-01-07T01:17:26;5.50;1.00
6496;DHT22;3281;47.658;9.166;2024-01-07T01:19:53;5.50;1.00
6496;DHT22;3281;47.658;9.166;2024-01-07T01:22:19;5.50;1.00
6496;DHT22;3281;47.658;9.166;2024-01-07T01:24:46;5.50;1.00
6496;DHT22;3281;47.658;9.166;2024-01-07T01:27:14;5.40;1.00
6496;DHT22;3281;47.658;9.166;2024-01-07T01:29:41;5.50;1.00
6496;DHT22;3281;47.658;9.166;2024-01-07T01:32:09;5.50;1.00
6496;DHT22;3281;47.658;9.166;2024-01-07T01:34:36;5.40;1.00
6496;DHT22;3281;47.658;9.166;2024-01-07T01:37:03;5.50;1.00
6496;DHT22;3281;47.658;9.166;2024-01-07T01:39:30;5.40;1.00
6496;DHT22;3281;47.658;9.166;2024-01-07T01:41:57;5.40;1.00
6496;DHT22;3281;47.658;9.166;2024-01-07T01:44:23;5.40;1.00
6496;DHT22;3281;47.658;9.166;2024-01-07T01:46:52;5.40;1.00
6496;DHT22;3281;47.658;9.166;2024-01-07T01:49:20;5.40;1.00
6496;DHT22;3281;47.658;9.166;2024-01-07T01:51:47;5.40;1.00
6496;DHT22;3281;47.658;9.166;2024-01-07T01:54:15;5.40;1.00
6496;DHT22;3281;47.658;9.166;2024-01-07T01:56:43;5.30;1.00
6496;DHT22;3281;47.658;9.166;2024-01-07T01:59:11;5.30;1.00
6496;DHT22;3281;47.658;9.166;2024-01-07T02:01:38;5.40;1.00
6496;DHT22;3281;47.658;9.166;2024-01-07T02:04:05;5.30;1.00
6496;DHT22;3281;47.658;9.166;2024-01-07T02:06:33;5.30;1.00
6496;DHT22;3281;47.658;9.166;2024-01-07T02:09:00;5.30;1.00
6496;DHT22;3281;47.658;9.166;2024-01-07T02:11:27;5.30;1.00
6496;DHT22;3281;47.658;9.166;2024-01-07T02:13:54;5.30;1.00
6496;DHT22;3281;47.658;9.166;2024-01-07T02:16:20;5.40;1.00
6496;DHT22;3281;47.658;9.166;2024-01-07T02:18:47;5.30;1.00
6496;DHT22;3281;47.658;9.166;2024-01-07T02:21:14;5.40;1.00
6496;DHT22;3281;47.658;9.166;2024-01-07T02:23:42;5.40;1.00
6496;DHT22;3281;47.658;9.166;2024-01-07T02:26:10;5.30;1.00
6496;DHT22;3281;47.658;9.166;2024-01-07T02:28:37;5.30;1.00
6496;DHT22;3281;47.658;9.166;2024-01-07T02:31:03;5.40;1.00
6496;DHT22;3281;47.658;9.166;2024-01-07T02:33:30;5.40;1.00
6496;DHT22;3281;47.658;9.166;2024-01-07T02:35:57;5.30;1.00
6496;DHT22;3281;47.658;9.166;2024-01-07T02:38:24;5.40;1.00
6496;DHT22;3281;47.658;9.166;2024-01-07T02:40:50;5.30;1.00
6496;DHT22;3281;47.658;9.166;2024-01-07T02:43:18;5.30;1.00
6496;DHT22;3281;47.658;9.166;2024-01-07T02:45:45;5.30;1.00
6496;DHT22;3281;47.658;9.166;2024-01-07T02:48:12;5.30;1.00
6496;DHT22;3281;47.658;9.166;2024-01-07T02:50:38;5.30;1.00
6496;DHT22;3281;47.658;9.166;2024-01-07T02:53:06;5.30;1.00
6496;DHT22;3281;47.658;9.166;2024-01-07T02:55:33;5.40;1.00
6496;DHT22;3281;47.658;9.166;2024-01-07T02:58:00;5.30;1.00
6496;DHT22;3281;47.658;9.166;2024-01-07T03:00:28;5.30;1.00
6496;DHT22;3281;47.658;9.166;2024-01-07T03:02:55;5.30;1.00
6496;DHT22;3281;47.658;9.166;2024-01-07T03:05:21;5.40;1.00
6496;DHT22;3281;47.658;9.166;2024-01-07T03:07:48;5.40;1.00
6496;DHT22;3281;47.658;9.166;2024-01-07T03:10:15;5.40;1.00
6496;DHT22;3281;47.658;9.166;2024-01-07T03:12:42;5.50;1.00
6496;DHT22;3281;47.658;9.166;2024-01-07T03:15:09;5.50;1.00
6496;DHT22;3281;47.658;9.166;2024-01-07T03:17:37;5.50;1.00
6496;DHT22;3281;47.658;9.166;2024-01-07T03:20:04;5.50;1.00
6496;DHT22;3281;47.658;9.166;2024-01-07T03:22:31;5.50;1.00
6496;DHT22;3281;47.658;9.166;2024-01-07T03:24:58;5.50;1.00
6496;DHT22;3281;47.658;9.166;2024-01-07T03:27:24;5.40;1.00
6496;DHT22;3281;47.658;9.166;2024-01-07T03:29:51;5.40;1.00
6496;DHT22;3281;47.658;9.166;2024-01-07T03:32:18;5.40;1.00
6496;DHT22;3281;47.658;9.166;2024-01-07T03:34:46;5.40;1.00
6496;DHT22;3281;47.658;9.166;2024-01-07T03:37:13;5.50;1.00
6496;DHT22;3281;47.658;9.166;2024-01-07T03:39:39;5.80;1.00
6496;DHT22;3281;47.658;9.166;2024-01-07T03:42:06;5.50;1.00
6496;DHT22;3281;47.658;9.166;2024-01-07T03:44:37;5.50;1.00
6496;DHT22;3281;47.658;9.166;2024-01-07T03:47:03;5.50;1.00
6496;DHT22;3281;47.658;9.166;2024-01-07T03:49:30;5.50;1.00
6496;DHT22;3281;47.658;9.166;2024-01-07T03:51:58;5.50;1.00
6496;DHT22;3281;47.658;9.166;2024-01-07T03:54:25;5.50;1.00
6496;DHT22;3281;47.658;9.166;2024-01-07T03:56:52;5.50;1.00
6496;DHT22;3281;47.658;9.166;2024-01-07T03:59:18;5.40;1.00
6496;DHT22;3281;47.658;9.166;2024-01-07T04:01:45;5.40;1.00
6496;DHT22;3281;47.658;9.166;2024-01-07T04:04:13;5.40;1.00
6496;DHT22;3281;47.658;9.166;2024-01-07T04:06:40;5.40;1.00
6496;DHT22;3281;47.658;9.166;2024-01-07T04:09:08;5.40;1.00
6496;DHT22;3281;47.658;9.166;2024-01-07T04:11:39;5.40;1.00
6496;DHT22;3281;47.658;9.166;2024-01-07T04:14:06;5.40;1.00
6496;DHT22;3281;47.658;9.166;2024-01-07T04:16:32;5.40;1.00
6496;DHT22;3281;47.658;9.166;2024-01-07T04:18:59;5.50;1.00
6496;DHT22;3281;47.658;9.166;2024-01-07T04:21:26;5.50;1.00
6496;DHT22;3281;47.658;9.166;2024-01-07T04:23:53;5.40;1.00
6496;DHT22;3281;47.658;9.166;2024-01-07T04:26:21;5.40;1.00
6496;DHT22;3281;47.658;9.166;2024-01-07T04:28:47;5.40;1.00
6496;DHT22;3281;47.658;9.166;2024-01-07T04:31:14;5.50;1.00
6496;DHT22;3281;47.658;9.166;2024-01-07T04:33:41;5.50;1.00
6496;DHT22;3281;47.658;9.166;2024-01-07T04:36:08;5.50;1.00
6496;DHT22;3281;47.658;9.166;2024-01-07T04:38:35;5.50;1.00
6496;DHT22;3281;47.658;9.166;2024-01-07T04:41:02;5.40;1.00
6496;DHT22;3281;47.658;9.166;2024-01-07T04:43:30;5.50;1.00
6496;DHT22;3281;47.658;9.166;2024-01-07T04:45:57;5.50;1.00
6496;DHT22;3281;47.658;9.166;2024-01-07T04:48:23;5.50;1.00
6496;DHT22;3281;47.658;9.166;2024-01-07T04:50:50;5.50;1.00
6496;DHT22;3281;47.658;9.166;2024-01-07T04:53:17;5.50;1.00
6496;DHT22;3281;47.658;9.166;2024-01-07T04:55:43;5.50;1.00
6496;DHT22;3281;47.658;9.166;2024-01-07T04:58:10;5.40;1.00
6496;DHT22;3281;47.658;9.166;2024-01-07T05:00:38;5.40;1.00
6496;DHT22;3281;47.658;9.166;2024-01-07T05:03:05;5.50;1.00
6496;DHT22;3281;47.658;9.166;2024-01-07T05:05:31;5.50;1.00
6496;DHT22;3281;47.658;9.166;2024-01-07T05:07:58;5.50;1.00
6496;DHT22;3281;47.658;9.166;2024-01-07T05:10:26;5.50;1.00
6496;DHT22;3281;47.658;9.166;2024-01-07T05:12:52;5.50;1.00
6496;DHT22;3281;47.658;9.166;2024-01-07T05:15:19;5.50;1.00
6496;DHT22;3281;47.658;9.166;2024-01-07T05:17:47;5.50;1.00
6496;DHT22;3281;47.658;9.166;2024-01-07T05:20:15;5.60;1.00
6496;DHT22;3281;47.658;9.166;2024-01-07T05:22:42;5.60;1.00
6496;DHT22;3281;47.658;9.166;2024-01-07T05:25:09;5.60;1.00
6496;DHT22;3281;47.658;9.166;2024-01-07T05:27:35;5.70;1.00
6496;DHT22;3281;47.658;9.166;2024-01-07T05:30:03;5.70;1.00
6496;DHT22;3281;47.658;9.166;2024-01-07T05:32:29;5.60;1.00
6496;DHT22;3281;47.658;9.166;2024-01-07T05:34:57;5.70;1.00
6496;DHT22;3281;47.658;9.166;2024-01-07T05:37:24;5.60;1.00
6496;DHT22;3281;47.658;9.166;2024-01-07T05:39:51;5.80;1.00
6496;DHT22;3281;47.658;9.166;2024-01-07T05:42:17;5.60;1.00
6496;DHT22;3281;47.658;9.166;2024-01-07T05:44:45;5.70;1.00
6496;DHT22;3281;47.658;9.166;2024-01-07T05:47:12;5.70;1.00
6496;DHT22;3281;47.658;9.166;2024-01-07T05:49:38;5.70;1.00
6496;DHT22;3281;47.658;9.166;2024-01-07T05:52:06;5.70;1.00
6496;DHT22;3281;47.658;9.166;2024-01-07T05:54:33;5.70;1.00
6496;DHT22;3281;47.658;9.166;2024-01-07T05:57:00;5.60;1.00
6496;DHT22;3281;47.658;9.166;2024-01-07T05:59:25;5.70;1.00
6496;DHT22;3281;47.658;9.166;2024-01-07T06:01:58;5.70;1.00
6496;DHT22;3281;47.658;9.166;2024-01-07T06:04:24;5.60;1.00
6496;DHT22;3281;47.658;9.166;2024-01-07T06:06:51;5.60;1.00
6496;DHT22;3281;47.658;9.166;2024-01-07T06:09:19;5.60;1.00
6496;DHT22;3281;47.658;9.166;2024-01-07T06:11:46;5.60;1.00
6496;DHT22;3281;47.658;9.166;2024-01-07T06:14:13;5.60;1.00
6496;DHT22;3281;47.658;9.166;2024-01-07T06:16:40;5.60;1.00
6496;DHT22;3281;47.658;9.166;2024-01-07T06:19:07;5.70;1.00
6496;DHT22;3281;47.658;9.166;2024-01-07T06:21:34;5.60;1.00
6496;DHT22;3281;47.658;9.166;2024-01-07T06:24:01;5.60;1.00
6496;DHT22;3281;47.658;9.166;2024-01-07T06:26:29;5.70;1.00
6496;DHT22;3281;47.658;9.166;2024-01-07T06:28:56;5.70;1.00
6496;DHT22;3281;47.658;9.166;2024-01-07T06:31:22;5.70;1.00
6496;DHT22;3281;47.658;9.166;2024-01-07T06:33:49;5.60;1.00
6496;DHT22;3281;47.658;9.166;2024-01-07T06:36:16;5.60;1.00
6496;DHT22;3281;47.658;9.166;2024-01-07T06:38:42;5.60;1.00
6496;DHT22;3281;47.658;9.166;2024-01-07T06:41:09;5.60;1.00
6496;DHT22;3281;47.658;9.166;2024-01-07T06:43:37;5.60;1.00
6496;DHT22;3281;47.658;9.166;2024-01-07T06:46:04;5.60;1.00
6496;DHT22;3281;47.658;9.166;2024-01-07T06:48:31;5.50;1.00
6496;DHT22;3281;47.658;9.166;2024-01-07T06:50:58;5.50;1.00
6496;DHT22;3281;47.658;9.166;2024-01-07T06:53:25;5.50;1.00
6496;DHT22;3281;47.658;9.166;2024-01-07T06:55:51;5.50;1.00
6496;DHT22;3281;47.658;9.166;2024-01-07T06:58:18;5.50;1.00
6496;DHT22;3281;47.658;9.166;2024-01-07T07:00:46;5.50;1.00
6496;DHT22;3281;47.658;9.166;2024-01-07T07:03:13;5.50;1.00
6496;DHT22;3281;47.658;9.166;2024-01-07T07:05:40;5.50;1.00
6496;DHT22;3281;47.658;9.166;2024-01-07T07:08:07;5.50;1.00
6496;DHT22;3281;47.658;9.166;2024-01-07T07:10:33;5.50;1.00
6496;DHT22;3281;47.658;9.166;2024-01-07T07:13:00;5.60;1.00
6496;DHT22;3281;47.658;9.166;2024-01-07T07:15:27;5.50;1.00
6496;DHT22;3281;47.658;9.166;2024-01-07T07:17:55;5.50;1.00
6496;DHT22;3281;47.658;9.166;2024-01-07T07:20:22;5.50;1.00
6496;DHT22;3281;47.658;9.166;2024-01-07T07:22:49;5.40;1.00
6496;DHT22;3281;47.658;9.166;2024-01-07T07:25:16;5.40;1.00
6496;DHT22;3281;47.658;9.166;2024-01-07T07:27:42;5.50;1.00
6496;DHT22;3281;47.658;9.166;2024-01-07T07:30:09;5.50;1.00
6496;DHT22;3281;47.658;9.166;2024-01-07T07:32:39;5.50;1.00
6496;DHT22;3281;47.658;9.166;2024-01-07T07:35:09;5.50;1.00
6496;DHT22;3281;47.658;9.166;2024-01-07T07:37:36;5.50;1.00
6496;DHT22;3281;47.658;9.166;2024-01-07T07:40:04;5.50;1.00
6496;DHT22;3281;47.658;9.166;2024-01-07T07:42:31;5.60;1.00
6496;DHT22;3281;47.658;9.166;2024-01-07T07:44:58;5.60;1.00
6496;DHT22;3281;47.658;9.166;2024-01-07T07:47:24;5.60;1.00
6496;DHT22;3281;47.658;9.166;2024-01-07T07:49:51;5.60;1.00
6496;DHT22;3281;47.658;9.166;2024-01-07T07:52:19;5.60;1.00
6496;DHT22;3281;47.658;9.166;2024-01-07T07:54:47;5.60;1.00
6496;DHT22;3281;47.658;9.166;2024-01-07T07:57:14;5.60;1.00
6496;DHT22;3281;47.658;9.166;2024-01-07T07:59:41;5.50;1.00
6496;DHT22;3281;47.658;9.166;2024-01-07T08:02:08;5.40;1.00
6496;DHT22;3281;47.658;9.166;2024-01-07T08:04:35;5.40;1.00
6496;DHT22;3281;47.658;9.166;2024-01-07T08:07:02;5.50;1.00
6496;DHT22;3281;47.658;9.166;2024-01-07T08:09:30;5.40;1.00
6496;DHT22;3281;47.658;9.166;2024-01-07T08:11:57;5.40;1.00
6496;DHT22;3281;47.658;9.166;2024-01-07T08:14:24;5.50;1.00
6496;DHT22;3281;47.658;9.166;2024-01-07T08:16:50;5.50;1.00
6496;DHT22;3281;47.658;9.166;2024-01-07T08:19:18;5.50;1.00
6496;DHT22;3281;47.658;9.166;2024-01-07T08:21:45;5.60;1.00
6496;DHT22;3281;47.658;9.166;2024-01-07T08:24:12;5.70;1.00
6496;DHT22;3281;47.658;9.166;2024-01-07T08:26:40;5.70;1.00
6496;DHT22;3281;47.658;9.166;2024-01-07T08:29:07;5.70;1.00
6496;DHT22;3281;47.658;9.166;2024-01-07T08:31:33;5.70;1.00
6496;DHT22;3281;47.658;9.166;2024-01-07T08:34:00;5.70;1.00
6496;DHT22;3281;47.658;9.166;2024-01-07T08:36:27;5.60;1.00
6496;DHT22;3281;47.658;9.166;2024-01-07T08:38:54;5.60;1.00
6496;DHT22;3281;47.658;9.166;2024-01-07T08:41:21;5.70;1.00
6496;DHT22;3281;47.658;9.166;2024-01-07T08:43:49;5.80;1.00
6496;DHT22;3281;47.658;9.166;2024-01-07T08:46:16;5.80;1.00
6496;DHT22;3281;47.658;9.166;2024-01-07T08:48:43;5.80;1.00
6496;DHT22;3281;47.658;9.166;2024-01-07T08:51:10;5.80;1.00
6496;DHT22;3281;47.658;9.166;2024-01-07T08:53:36;5.80;1.00
6496;DHT22;3281;47.658;9.166;2024-01-07T08:56:02;5.80;1.00
6496;DHT22;3281;47.658;9.166;2024-01-07T08:58:29;5.80;1.00
6496;DHT22;3281;47.658;9.166;2024-01-07T09:00:57;5.80;1.00
6496;DHT22;3281;47.658;9.166;2024-01-07T09:03:24;5.80;1.00
6496;DHT22;3281;47.658;9.166;2024-01-07T09:05:51;5.90;1.00
6496;DHT22;3281;47.658;9.166;2024-01-07T09:08:17;5.90;1.00
6496;DHT22;3281;47.658;9.166;2024-01-07T09:10:44;5.90;1.00
6496;DHT22;3281;47.658;9.166;2024-01-07T09:13:11;5.80;1.00
6496;DHT22;3281;47.658;9.166;2024-01-07T09:15:37;5.80;1.00
6496;DHT22;3281;47.658;9.166;2024-01-07T09:18:06;5.90;1.00
6496;DHT22;3281;47.658;9.166;2024-01-07T09:20:33;5.90;1.00
6496;DHT22;3281;47.658;9.166;2024-01-07T09:23:00;5.90;1.00
6496;DHT22;3281;47.658;9.166;2024-01-07T09:25:27;5.90;1.00
6496;DHT22;3281;47.658;9.166;2024-01-07T09:27:54;5.90;1.00
6496;DHT22;3281;47.658;9.166;2024-01-07T09:30:21;5.90;1.00
6496;DHT22;3281;47.658;9.166;2024-01-07T09:32:48;6.00;1.00
6496;DHT22;3281;47.658;9.166;2024-01-07T09:35:17;5.90;1.00
6496;DHT22;3281;47.658;9.166;2024-01-07T09:37:44;6.00;1.00
6496;DHT22;3281;47.658;9.166;2024-01-07T09:40:12;5.90;1.00
6496;DHT22;3281;47.658;9.166;2024-01-07T09:42:38;5.90;1.00
6496;DHT22;3281;47.658;9.166;2024-01-07T09:45:06;5.90;1.00
6496;DHT22;3281;47.658;9.166;2024-01-07T09:47:35;5.90;1.00
6496;DHT22;3281;47.658;9.166;2024-01-07T09:50:02;6.00;1.00
6496;DHT22;3281;47.658;9.166;2024-01-07T09:52:30;5.90;1.00
6496;DHT22;3281;47.658;9.166;2024-01-07T09:54:58;5.90;1.00
6496;DHT22;3281;47.658;9.166;2024-01-07T09:57:25;5.90;1.00
6496;DHT22;3281;47.658;9.166;2024-01-07T09:59:52;6.00;1.00
6496;DHT22;3281;47.658;9.166;2024-01-07T10:02:20;5.90;1.00
6496;DHT22;3281;47.658;9.166;2024-01-07T10:04:47;5.90;1.00
6496;DHT22;3281;47.658;9.166;2024-01-07T10:07:15;5.80;1.00
6496;DHT22;3281;47.658;9.166;2024-01-07T10:09:43;5.90;1.00
6496;DHT22;3281;47.658;9.166;2024-01-07T10:12:10;5.90;1.00
6496;DHT22;3281;47.658;9.166;2024-01-07T10:14:38;5.90;1.00
6496;DHT22;3281;47.658;9.166;2024-01-07T10:17:14;5.90;1.00
6496;DHT22;3281;47.658;9.166;2024-01-07T10:19:43;6.00;1.00
6496;DHT22;3281;47.658;9.166;2024-01-07T10:22:12;6.00;1.00
6496;DHT22;3281;47.658;9.166;2024-01-07T10:24:41;5.90;1.00
6496;DHT22;3281;47.658;9.166;2024-01-07T10:27:10;5.90;1.00
6496;DHT22;3281;47.658;9.166;2024-01-07T10:29:37;5.90;1.00
6496;DHT22;3281;47.658;9.166;2024-01-07T10:32:05;6.00;1.00
6496;DHT22;3281;47.658;9.166;2024-01-07T10:34:32;6.00;1.00
6496;DHT22;3281;47.658;9.166;2024-01-07T10:37:00;5.90;1.00
6496;DHT22;3281;47.658;9.166;2024-01-07T10:39:27;5.80;1.00
6496;DHT22;3281;47.658;9.166;2024-01-07T10:41:55;5.80;1.00
6496;DHT22;3281;47.658;9.166;2024-01-07T10:44:25;5.70;1.00
6496;DHT22;3281;47.658;9.166;2024-01-07T10:46:54;5.80;1.00
6496;DHT22;3281;47.658;9.166;2024-01-07T10:49:22;5.80;1.00
6496;DHT22;3281;47.658;9.166;2024-01-07T10:51:58;5.90;1.00
6496;DHT22;3281;47.658;9.166;2024-01-07T10:54:29;5.90;1.00
6496;DHT22;3281;47.658;9.166;2024-01-07T10:56:59;6.00;1.00
6496;DHT22;3281;47.658;9.166;2024-01-07T10:59:29;6.00;1.00
6496;DHT22;3281;47.658;9.166;2024-01-07T11:01:57;6.00;1.00
6496;DHT22;3281;47.658;9.166;2024-01-07T11:04:29;6.00;1.00
6496;DHT22;3281;47.658;9.166;2024-01-07T11:07:03;5.90;1.00
6496;DHT22;3281;47.658;9.166;2024-01-07T11:09:37;6.00;1.00
6496;DHT22;3281;47.658;9.166;2024-01-07T11:12:05;5.90;1.00
6496;DHT22;3281;47.658;9.166;2024-01-07T11:14:39;5.80;1.00
6496;DHT22;3281;47.658;9.166;2024-01-07T11:17:06;5.70;1.00
6496;DHT22;3281;47.658;9.166;2024-01-07T11:19:33;5.80;1.00
6496;DHT22;3281;47.658;9.166;2024-01-07T11:22:22;5.90;1.00
6496;DHT22;3281;47.658;9.166;2024-01-07T11:24:50;5.90;1.00
6496;DHT22;3281;47.658;9.166;2024-01-07T11:27:17;5.90;1.00
6496;DHT22;3281;47.658;9.166;2024-01-07T11:29:53;6.00;1.00
6496;DHT22;3281;47.658;9.166;2024-01-07T11:32:22;6.30;1.00
6496;DHT22;3281;47.658;9.166;2024-01-07T11:34:48;6.10;1.00
6496;DHT22;3281;47.658;9.166;2024-01-07T11:37:19;6.10;1.00
6496;DHT22;3281;47.658;9.166;2024-01-07T11:39:47;6.10;1.00
6496;DHT22;3281;47.658;9.166;2024-01-07T11:42:15;6.10;1.00
6496;DHT22;3281;47.658;9.166;2024-01-07T11:44:53;6.20;1.00
6496;DHT22;3281;47.658;9.166;2024-01-07T11:47:21;6.20;1.00
6496;DHT22;3281;47.658;9.166;2024-01-07T11:49:48;6.30;1.00
6496;DHT22;3281;47.658;9.166;2024-01-07T11:52:15;6.20;1.00
6496;DHT22;3281;47.658;9.166;2024-01-07T11:54:42;6.20;1.00
6496;DHT22;3281;47.658;9.166;2024-01-07T11:57:10;6.20;1.00
6496;DHT22;3281;47.658;9.166;2024-01-07T11:59:37;6.20;1.00
6496;DHT22;3281;47.658;9.166;2024-01-07T12:02:07;6.10;1.00
6496;DHT22;3281;47.658;9.166;2024-01-07T12:04:34;6.20;1.00
6496;DHT22;3281;47.658;9.166;2024-01-07T12:07:01;6.20;1.00
6496;DHT22;3281;47.658;9.166;2024-01-07T12:09:29;6.20;1.00
6496;DHT22;3281;47.658;9.166;2024-01-07T12:11:56;6.20;1.00
6496;DHT22;3281;47.658;9.166;2024-01-07T12:14:23;6.20;1.00
6496;DHT22;3281;47.658;9.166;2024-01-07T12:16:50;6.30;1.00
6496;DHT22;3281;47.658;9.166;2024-01-07T12:19:18;6.20;1.00
6496;DHT22;3281;47.658;9.166;2024-01-07T12:21:45;6.20;1.00
6496;DHT22;3281;47.658;9.166;2024-01-07T12:24:13;6.20;1.00
6496;DHT22;3281;47.658;9.166;2024-01-07T12:26:39;6.10;1.00
6496;DHT22;3281;47.658;9.166;2024-01-07T12:29:06;6.00;1.00
6496;DHT22;3281;47.658;9.166;2024-01-07T12:31:35;6.10;1.00
6496;DHT22;3281;47.658;9.166;2024-01-07T12:34:04;5.90;1.00
6496;DHT22;3281;47.658;9.166;2024-01-07T12:36:33;5.90;1.00
6496;DHT22;3281;47.658;9.166;2024-01-07T12:38:59;5.80;1.00
6496;DHT22;3281;47.658;9.166;2024-01-07T12:41:26;5.80;1.00
6496;DHT22;3281;47.658;9.166;2024-01-07T12:43:54;5.80;1.00
6496;DHT22;3281;47.658;9.166;2024-01-07T12:46:21;5.80;1.00
6496;DHT22;3281;47.658;9.166;2024-01-07T12:48:48;5.80;1.00
6496;DHT22;3281;47.658;9.166;2024-01-07T12:51:14;5.90;1.00
6496;DHT22;3281;47.658;9.166;2024-01-07T12:53:43;5.80;1.00
6496;DHT22;3281;47.658;9.166;2024-01-07T12:56:10;5.90;1.00
6496;DHT22;3281;47.658;9.166;2024-01-07T12:58:37;5.90;1.00
6496;DHT22;3281;47.658;9.166;2024-01-07T13:01:04;5.80;1.00
6496;DHT22;3281;47.658;9.166;2024-01-07T13:03:30;5.80;1.00
6496;DHT22;3281;47.658;9.166;2024-01-07T13:05:57;5.80;1.00
6496;DHT22;3281;47.658;9.166;2024-01-07T13:08:24;5.70;1.00
6496;DHT22;3281;47.658;9.166;2024-01-07T13:10:52;5.70;1.00
6496;DHT22;3281;47.658;9.166;2024-01-07T13:13:20;5.70;1.00
6496;DHT22;3281;47.658;9.166;2024-01-07T13:15:47;5.60;1.00
6496;DHT22;3281;47.658;9.166;2024-01-07T13:18:15;5.60;1.00
6496;DHT22;3281;47.658;9.166;2024-01-07T13:20:42;5.70;1.00
6496;DHT22;3281;47.658;9.166;2024-01-07T13:23:08;5.70;1.00
6496;DHT22;3281;47.658;9.166;2024-01-07T13:25:35;5.60;1.00
6496;DHT22;3281;47.658;9.166;2024-01-07T13:28:04;5.60;1.00
6496;DHT22;3281;47.658;9.166;2024-01-07T13:30:36;5.60;1.00
6496;DHT22;3281;47.658;9.166;2024-01-07T13:33:03;5.60;1.00
6496;DHT22;3281;47.658;9.166;2024-01-07T13:35:29;5.50;1.00
6496;DHT22;3281;47.658;9.166;2024-01-07T13:37:56;5.50;1.00
6496;DHT22;3281;47.658;9.166;2024-01-07T13:40:23;5.50;1.00
6496;DHT22;3281;47.658;9.166;2024-01-07T13:42:50;5.50;1.00
6496;DHT22;3281;47.658;9.166;2024-01-07T13:45:19;5.40;1.00
6496;DHT22;3281;47.658;9.166;2024-01-07T13:47:48;5.40;1.00
6496;DHT22;3281;47.658;9.166;2024-01-07T13:50:15;5.40;1.00
6496;DHT22;3281;47.658;9.166;2024-01-07T13:52:41;5.40;1.00
6496;DHT22;3281;47.658;9.166;2024-01-07T13:55:08;5.40;1.00
6496;DHT22;3281;47.658;9.166;2024-01-07T13:57:35;5.30;1.00
6496;DHT22;3281;47.658;9.166;2024-01-07T14:00:03;5.20;1.00
6496;DHT22;3281;47.658;9.166;2024-01-07T14:02:35;5.30;1.00
6496;DHT22;3281;47.658;9.166;2024-01-07T14:05:03;5.20;1.00
6496;DHT22;3281;47.658;9.166;2024-01-07T14:07:31;5.20;1.00
6496;DHT22;3281;47.658;9.166;2024-01-07T14:09:58;5.20;1.00
6496;DHT22;3281;47.658;9.166;2024-01-07T14:12:26;5.20;1.00
6496;DHT22;3281;47.658;9.166;2024-01-07T14:14:53;5.20;1.00
6496;DHT22;3281;47.658;9.166;2024-01-07T14:17:19;5.20;1.00
6496;DHT22;3281;47.658;9.166;2024-01-07T14:19:47;5.20;1.00
6496;DHT22;3281;47.658;9.166;2024-01-07T14:22:16;5.20;1.00
6496;DHT22;3281;47.658;9.166;2024-01-07T14:24:43;5.20;1.00
6496;DHT22;3281;47.658;9.166;2024-01-07T14:27:10;5.00;1.00
6496;DHT22;3281;47.658;9.166;2024-01-07T14:29:37;5.10;1.00
6496;DHT22;3281;47.658;9.166;2024-01-07T14:32:06;5.00;1.00
6496;DHT22;3281;47.658;9.166;2024-01-07T14:34:32;5.00;1.00
6496;DHT22;3281;47.658;9.166;2024-01-07T14:37:00;5.00;1.00
6496;DHT22;3281;47.658;9.166;2024-01-07T14:39:27;5.10;1.00
6496;DHT22;3281;47.658;9.166;2024-01-07T14:41:54;5.00;1.00
6496;DHT22;3281;47.658;9.166;2024-01-07T14:44:20;5.20;1.00
6496;DHT22;3281;47.658;9.166;2024-01-07T14:46:47;5.20;1.00
6496;DHT22;3281;47.658;9.166;2024-01-07T14:49:14;5.20;1.00
6496;DHT22;3281;47.658;9.166;2024-01-07T14:51:40;5.20;1.00
6496;DHT22;3281;47.658;9.166;2024-01-07T14:54:08;5.10;1.00
6496;DHT22;3281;47.658;9.166;2024-01-07T14:56:35;5.10;1.00
6496;DHT22;3281;47.658;9.166;2024-01-07T14:59:02;5.00;1.00
6496;DHT22;3281;47.658;9.166;2024-01-07T15:01:29;5.00;1.00
6496;DHT22;3281;47.658;9.166;2024-01-07T15:03:55;4.90;1.00
6496;DHT22;3281;47.658;9.166;2024-01-07T15:06:22;4.80;1.00
6496;DHT22;3281;47.658;9.166;2024-01-07T15:08:49;4.90;1.00
6496;DHT22;3281;47.658;9.166;2024-01-07T15:11:18;4.90;1.00
6496;DHT22;3281;47.658;9.166;2024-01-07T15:13:44;4.80;1.00
6496;DHT22;3281;47.658;9.166;2024-01-07T15:16:11;4.70;1.00
6496;DHT22;3281;47.658;9.166;2024-01-07T15:18:38;4.80;1.00
6496;DHT22;3281;47.658;9.166;2024-01-07T15:21:04;4.80;1.00
6496;DHT22;3281;47.658;9.166;2024-01-07T15:23:31;4.90;1.00
6496;DHT22;3281;47.658;9.166;2024-01-07T15:25:58;4.80;1.00
6496;DHT22;3281;47.658;9.166;2024-01-07T15:28:26;4.80;1.00
6496;DHT22;3281;47.658;9.166;2024-01-07T15:30:53;4.60;1.00
6496;DHT22;3281;47.658;9.166;2024-01-07T15:33:20;4.60;1.00
6496;DHT22;3281;47.658;9.166;2024-01-07T15:35:47;4.60;1.00
6496;DHT22;3281;47.658;9.166;2024-01-07T15:38:14;4.70;1.00
6496;DHT22;3281;47.658;9.166;2024-01-07T15:40:40;4.70;1.00
6496;DHT22;3281;47.658;9.166;2024-01-07T15:43:08;4.90;1.00
6496;DHT22;3281;47.658;9.166;2024-01-07T15:45:39;4.70;1.00
6496;DHT22;3281;47.658;9.166;2024-01-07T15:48:06;4.70;1.00
6496;DHT22;3281;47.658;9.166;2024-01-07T15:50:32;4.70;1.00
6496;DHT22;3281;47.658;9.166;2024-01-07T15:52:59;4.70;1.00
6496;DHT22;3281;47.658;9.166;2024-01-07T15:55:27;4.70;1.00
6496;DHT22;3281;47.658;9.166;2024-01-07T15:57:54;4.60;1.00
6496;DHT22;3281;47.658;9.166;2024-01-07T16:00:20;4.60;1.00
6496;DHT22;3281;47.658;9.166;2024-01-07T16:02:48;4.60;1.00
6496;DHT22;3281;47.658;9.166;2024-01-07T16:05:15;4.40;1.00
6496;DHT22;3281;47.658;9.166;2024-01-07T16:07:43;4.40;1.00
6496;DHT22;3281;47.658;9.166;2024-01-07T16:10:10;4.50;1.00
6496;DHT22;3281;47.658;9.166;2024-01-07T16:12:38;4.40;1.00
6496;DHT22;3281;47.658;9.166;2024-01-07T16:15:05;4.40;1.00
6496;DHT22;3281;47.658;9.166;2024-01-07T16:17:32;4.50;1.00
6496;DHT22;3281;47.658;9.166;2024-01-07T16:20:00;4.40;1.00
6496;DHT22;3281;47.658;9.166;2024-01-07T16:22:27;4.40;1.00
6496;DHT22;3281;47.658;9.166;2024-01-07T16:24:53;4.40;1.00
6496;DHT22;3281;47.658;9.166;2024-01-07T16:27:21;4.40;1.00
6496;DHT22;3281;47.658;9.166;2024-01-07T16:29:47;4.40;1.00
6496;DHT22;3281;47.658;9.166;2024-01-07T16:32:13;4.40;1.00
6496;DHT22;3281;47.658;9.166;2024-01-07T16:34:40;4.40;1.00